Flight Track Log - Related Links

Times and Time Zones

All times are in EDT time to prevent confusion due to time zone crossing. See the N56359 flight status page for this flight to view local times or setup timezone preferences in your user account.

Time Position Orientation Groundspeed Altitude Reporting Facility
EDT Latitude Longitude Course Direction KTS MPH feet Rate Location/Type
Tue 02:50:38 PM 45.5928 -94.0144 43° Northeast 140 161 3,000  Level Minneapolis Center
Tue 02:51:40 PM 45.6158 -93.9717 52° Northeast 112 129 4,200 1,016 Climbing Minneapolis Center
Tue 02:52:42 PM 45.6356 -93.9408 48° Northeast 108 124 5,100 871 Climbing Minneapolis Center
Tue 02:53:00 PM 45.7161 -93.8230 43° Northeast  Level FlightAware Approximate
Tue 02:53:44 PM 45.6544 -93.9142 45° Northeast 100 115 6,000  Level Minneapolis Center
Tue 02:54:00 PM 45.7457 -93.7837 43° Northeast  Level FlightAware Approximate
Tue 02:54:46 PM 45.6736 -93.8886 43° Northeast 95 109 6,900  Level Minneapolis Center
Tue 02:55:00 PM 45.7754 -93.7445 43° Northeast  Level FlightAware Approximate
Tue 02:55:48 PM 45.6950 -93.8586 44° Northeast 105 121 7,000  Level Minneapolis Center
Tue 02:56:50 PM 45.7219 -93.8208 44° Northeast 130 150 7,000  Level Minneapolis Center
Tue 02:57:52 PM 45.7569 -93.7736 43° Northeast 140 161 7,000  Level Minneapolis Center
Tue 02:58:55 PM 45.7853 -93.7344 44° Northeast 143 165 7,000  Level Minneapolis Center
Tue 02:59:57 PM 45.8142 -93.6958 43° Northeast 143 165 7,000  Level Minneapolis Center
Tue 03:00:59 PM 45.8414 -93.6547 46° Northeast 144 166 7,000  Level Minneapolis Center
Tue 03:02:01 PM 45.8703 -93.6169 42° Northeast 143 165 7,000  Level Minneapolis Center
Tue 03:03:03 PM 45.9067 -93.5711 41° Northeast 145 167 7,000  Level Minneapolis Center
Tue 03:04:05 PM 45.9358 -93.5325 43° Northeast 144 166 7,000  Level Minneapolis Center
Tue 03:05:07 PM 45.9647 -93.4908 45° Northeast 145 167 7,000  Level Minneapolis Center
Tue 03:06:09 PM 45.9947 -93.4544 40° Northeast 144 166 7,000  Level Minneapolis Center
Tue 03:07:11 PM 46.0261 -93.4158 40° Northeast 146 168 7,000  Level Minneapolis Center
Tue 03:08:13 PM 46.0569 -93.3783 40° Northeast 145 167 7,000  Level Minneapolis Center
Tue 03:09:15 PM 46.0944 -93.3353 39° Northeast 146 168 7,000  Level Minneapolis Center
Tue 03:10:17 PM 46.1253 -93.2981 40° Northeast 146 168 7,000  Level Minneapolis Center
Tue 03:11:19 PM 46.1553 -93.2592 42° Northeast 145 167 7,000  Level Minneapolis Center
Tue 03:12:21 PM 46.1864 -93.2225 39° Northeast 146 168 7,000  Level Minneapolis Center
Tue 03:13:23 PM 46.2181 -93.1783 44° Northeast 147 169 7,000  Level Minneapolis Center
Tue 03:14:25 PM 46.2494 -93.1381 42° Northeast 151 174 7,000  Level Minneapolis Center
Tue 03:15:27 PM 46.2797 -93.0992 42° Northeast 148 170 7,000  Level Minneapolis Center
Tue 03:16:29 PM 46.3094 -93.0556 45° Northeast 149 171 7,000  Level Minneapolis Center
Tue 03:17:30 PM 46.3381 -93.0111 47° Northeast 151 174 7,000 -146 Level Minneapolis Center
Tue 03:18:32 PM 46.3753 -92.9589 44° Northeast 154 177 6,700 -484 Descending Minneapolis Center
Tue 03:19:34 PM 46.4078 -92.9097 46° Northeast 161 185 6,000 -581 Descending Minneapolis Center
Tue 03:20:36 PM 46.4411 -92.8617 45° Northeast 166 191 5,500 -435 Descending Minneapolis Center
Tue 03:21:38 PM 46.4672 -92.8236 45° Northeast 167 192 5,100 -397 Descending Minneapolis Center
Tue 03:22:52 PM 46.5067 -92.7694 43° Northeast 166 191 4,600 -485 Descending Minneapolis Center
Tue 03:23:54 PM 46.5450 -92.7147 44° Northeast 164 189 4,000 -435 Descending Minneapolis Center
Tue 03:24:56 PM 46.5839 -92.6633 42° Northeast 162 186 3,700 -484 Descending Minneapolis Center
Tue 03:25:58 PM 46.6167 -92.6228 40° Northeast 159 183 3,000 -629 Descending Minneapolis Center
Tue 03:27:00 PM 46.6517 -92.5844 37° Northeast 164 189 2,400 -390 Descending Minneapolis Center
Tue 03:28:01 PM 46.6911 -92.5761 North 157 181 2,200 -293 Descending Minneapolis Center
Tue 03:29:03 PM 46.6922 -92.5406 87° East 115 132 1,800 -242 Descending Minneapolis Center
Tue 03:30:05 PM 46.7008 -92.5075 69° East 109 125 1,700 -97 Descending Minneapolis Center

Login

Don't have an account? Register now (free) for customized features, flight alerts, and more!